createdAt,value
2018-08-21T00:02:17.462Z,100989.52
2018-08-21T00:04:50.750Z,100988.23
2018-08-21T00:07:18.821Z,100997.10
2018-08-21T00:09:46.914Z,100997.83
2018-08-21T00:12:14.994Z,100999.70
2018-08-21T00:14:45.360Z,100995.88
2018-08-21T00:17:13.456Z,100997.21
2018-08-21T00:19:41.534Z,100997.30
2018-08-21T00:22:09.625Z,100998.66
2018-08-21T00:24:37.707Z,100993.01
2018-08-21T00:27:07.011Z,100994.73
2018-08-21T00:29:37.991Z,100994.98
2018-08-21T00:32:07.151Z,100990.64
2018-08-21T00:34:36.387Z,100990.38
2018-08-21T00:37:05.764Z,100991.77
2018-08-21T00:39:34.535Z,100985.66
2018-08-21T00:42:05.892Z,100988.64
2018-08-21T00:44:34.523Z,100988.86
2018-08-21T00:47:02.859Z,100996.23
2018-08-21T00:49:30.996Z,100994.13
2018-08-21T00:51:59.092Z,101000.68
2018-08-21T00:54:27.215Z,100996.00
2018-08-21T00:56:55.287Z,101006.29
2018-08-21T00:59:24.081Z,100996.17
2018-08-21T01:01:52.139Z,100999.77
2018-08-21T01:04:20.199Z,100997.41
2018-08-21T01:06:48.326Z,100992.03
2018-08-21T01:09:18.456Z,100991.59
2018-08-21T01:11:47.196Z,100984.91
2018-08-21T01:14:15.267Z,100984.67
2018-08-21T01:16:43.407Z,100981.44
2018-08-21T01:19:12.130Z,100982.81
2018-08-21T01:21:40.795Z,100983.64
2018-08-21T01:24:08.896Z,100978.61
2018-08-21T01:26:36.991Z,100975.58
2018-08-21T01:29:05.124Z,100973.09
2018-08-21T01:31:33.248Z,100970.67
2018-08-21T01:34:01.410Z,100966.64
2018-08-21T01:36:29.523Z,100972.72
2018-08-21T01:38:57.676Z,100977.38
2018-08-21T01:41:25.848Z,100977.11
2018-08-21T01:43:53.947Z,100965.86
2018-08-21T01:46:22.039Z,100975.09
2018-08-21T01:48:50.142Z,100972.69
2018-08-21T01:51:18.247Z,100976.77
2018-08-21T01:53:57.727Z,100972.98
2018-08-21T01:56:26.060Z,100974.86
2018-08-21T01:58:54.173Z,100975.67
2018-08-21T02:01:22.460Z,100979.22
2018-08-21T02:03:50.531Z,100974.31
2018-08-21T02:06:18.756Z,100973.72
2018-08-21T02:08:46.864Z,100974.54
2018-08-21T02:11:14.997Z,100972.72
2018-08-21T02:13:43.152Z,100973.75
2018-08-21T02:16:11.263Z,100974.79
2018-08-21T02:18:39.346Z,100974.83
2018-08-21T02:21:07.462Z,100972.27
2018-08-21T02:23:35.536Z,100960.31
2018-08-21T02:26:03.662Z,100962.52
2018-08-21T02:28:31.752Z,100965.78
2018-08-21T02:30:59.860Z,100967.05
2018-08-21T02:33:27.951Z,100965.05
2018-08-21T02:35:56.719Z,100964.20
2018-08-21T02:38:24.856Z,100962.05
2018-08-21T02:40:52.968Z,100956.28
2018-08-21T02:43:21.042Z,100966.33
2018-08-21T02:45:49.156Z,100960.56
2018-08-21T02:48:23.673Z,100959.72
2018-08-21T02:50:51.955Z,100956.64
2018-08-21T02:53:20.040Z,100956.48
2018-08-21T02:55:48.144Z,100952.95
2018-08-21T02:58:16.267Z,100951.33
2018-08-21T03:00:44.403Z,100949.09
2018-08-21T03:03:12.485Z,100949.52
2018-08-21T03:05:40.560Z,100949.36
2018-08-21T03:08:08.663Z,100941.36
2018-08-21T03:10:36.740Z,100950.52
2018-08-21T03:13:04.834Z,100945.89
2018-08-21T03:15:32.900Z,100949.40
2018-08-21T03:18:01.028Z,100942.58
2018-08-21T03:20:29.107Z,100943.18
2018-08-21T03:22:57.192Z,100935.48
2018-08-21T03:25:25.281Z,100936.31
2018-08-21T03:27:53.363Z,100941.77
2018-08-21T03:30:21.449Z,100935.50
2018-08-21T03:32:49.539Z,100938.95
2018-08-21T03:35:17.603Z,100938.46
2018-08-21T03:37:45.681Z,100941.45
2018-08-21T03:40:13.772Z,100942.26
2018-08-21T03:42:41.868Z,100940.38
2018-08-21T03:45:09.952Z,100942.50
2018-08-21T03:47:44.340Z,100938.41
2018-08-21T03:50:13.005Z,100936.06
2018-08-21T03:52:41.117Z,100941.94
2018-08-21T03:55:11.079Z,100937.69
2018-08-21T03:57:39.252Z,100943.30
2018-08-21T04:00:13.595Z,100951.25
2018-08-21T04:02:41.687Z,100951.25
2018-08-21T04:05:09.861Z,100948.44
2018-08-21T04:07:37.863Z,100951.33
2018-08-21T04:10:06.001Z,100959.78
2018-08-21T04:12:34.099Z,100949.14
2018-08-21T04:15:02.178Z,100953.77
2018-08-21T04:17:31.447Z,100955.63
2018-08-21T04:20:00.340Z,100961.16
2018-08-21T04:22:30.086Z,100962.95
2018-08-21T04:24:58.193Z,100966.67
2018-08-21T04:27:26.359Z,100959.83
2018-08-21T04:29:54.644Z,100969.64
2018-08-21T04:32:23.982Z,100965.41
2018-08-21T04:34:55.217Z,100967.77
2018-08-21T04:37:23.681Z,100981.41
2018-08-21T04:39:58.419Z,100978.95
2018-08-21T04:42:26.520Z,100983.84
2018-08-21T04:44:54.654Z,100983.94
2018-08-21T04:47:32.387Z,100990.28
2018-08-21T04:50:01.644Z,100988.55
2018-08-21T04:52:30.322Z,100979.78
2018-08-21T04:54:59.150Z,100990.95
2018-08-21T04:57:27.456Z,100990.62
2018-08-21T04:59:56.220Z,100998.16
2018-08-21T05:02:37.583Z,100996.77
2018-08-21T05:05:05.820Z,100995.70
2018-08-21T05:08:00.571Z,100995.70
2018-08-21T05:10:28.643Z,101002.05
2018-08-21T05:12:57.548Z,100997.97
2018-08-21T05:15:27.285Z,100998.86
2018-08-21T05:18:00.015Z,101005.61
2018-08-21T05:20:29.963Z,101004.75
2018-08-21T05:22:58.061Z,101009.20
2018-08-21T05:25:37.660Z,101006.14
2018-08-21T05:28:05.759Z,101008.03
2018-08-21T05:30:39.275Z,101007.54
2018-08-21T05:33:07.560Z,101010.93
2018-08-21T05:35:35.637Z,101013.13
2018-08-21T05:38:03.708Z,101014.75
2018-08-21T05:40:33.010Z,101017.45
2018-08-21T05:43:01.114Z,101021.97
2018-08-21T05:45:29.742Z,101023.90
2018-08-21T05:47:58.291Z,101030.34
2018-08-21T05:50:27.146Z,101025.20
2018-08-21T05:52:55.222Z,101033.56
2018-08-21T05:55:23.453Z,101026.68
2018-08-21T05:57:51.421Z,101032.38
2018-08-21T06:00:20.975Z,101039.94
2018-08-21T06:02:50.679Z,101033.13
2018-08-21T06:05:18.743Z,101029.08
2018-08-21T06:07:46.875Z,101034.59
2018-08-21T06:10:14.971Z,101030.31
2018-08-21T06:12:58.811Z,101029.75
2018-08-21T06:15:26.894Z,101029.76
2018-08-21T06:18:02.111Z,101027.08
2018-08-21T06:20:31.337Z,101030.37
2018-08-21T06:22:59.387Z,101024.88
2018-08-21T06:25:27.468Z,101030.42
2018-08-21T06:27:55.839Z,101028.57
2018-08-21T06:30:23.930Z,101027.77
2018-08-21T06:32:52.012Z,101030.56
2018-08-21T06:35:20.104Z,101029.46
2018-08-21T06:37:50.608Z,101039.06
2018-08-21T06:40:18.898Z,101041.28
2018-08-21T06:42:47.090Z,101035.58
2018-08-21T06:45:15.192Z,101039.70
2018-08-21T06:47:43.347Z,101044.05
2018-08-21T06:50:11.483Z,101039.41
2018-08-21T06:52:39.603Z,101040.82
2018-08-21T06:55:07.727Z,101039.99
2018-08-21T06:57:35.881Z,101045.18
2018-08-21T07:00:04.629Z,101043.86
2018-08-21T07:02:32.640Z,101040.89
2018-08-21T07:05:03.514Z,101041.99
2018-08-21T07:07:31.606Z,101046.91
2018-08-21T07:09:59.653Z,101048.28
2018-08-21T07:12:28.326Z,101045.05
2018-08-21T07:14:56.767Z,101050.77
2018-08-21T07:17:31.019Z,101052.39
2018-08-21T07:19:59.114Z,101056.16
2018-08-21T07:22:27.176Z,101059.71
2018-08-21T07:24:56.115Z,101065.79
2018-08-21T07:27:27.274Z,101066.88
2018-08-21T07:29:58.793Z,101072.14
2018-08-21T07:32:30.319Z,101060.89
2018-08-21T07:35:00.863Z,101061.70
2018-08-21T07:37:28.969Z,101060.96
2018-08-21T07:39:57.938Z,101059.64
2018-08-21T07:42:27.117Z,101058.83
2018-08-21T07:44:55.206Z,101058.33
2018-08-21T07:47:25.573Z,101063.83
2018-08-21T07:49:53.677Z,101063.30
2018-08-21T07:52:21.751Z,101055.93
2018-08-21T07:54:49.827Z,101062.27
2018-08-21T07:57:17.979Z,101060.06
2018-08-21T07:59:46.331Z,101060.37
2018-08-21T08:02:14.412Z,101059.86
2018-08-21T08:04:42.511Z,101052.77
2018-08-21T08:07:26.929Z,101050.84
2018-08-21T08:09:55.091Z,101051.66
2018-08-21T08:12:23.180Z,101053.86
2018-08-21T08:14:51.291Z,101048.92
2018-08-21T08:17:19.484Z,101052.77
2018-08-21T08:19:47.594Z,101049.21
2018-08-21T08:22:21.072Z,101050.31
2018-08-21T08:24:51.007Z,101054.69
2018-08-21T08:27:19.626Z,101046.47
2018-08-21T08:29:47.699Z,101044.00
2018-08-21T08:32:15.799Z,101034.97
2018-08-21T08:34:43.897Z,101040.98
2018-08-21T08:37:12.002Z,101038.52
2018-08-21T08:39:40.084Z,101040.97
2018-08-21T08:42:08.192Z,101047.83
2018-08-21T08:44:36.274Z,101041.80
2018-08-21T08:47:09.560Z,101041.83
2018-08-21T08:49:41.811Z,101036.34
2018-08-21T08:52:11.777Z,101037.70
2018-08-21T08:54:39.870Z,101034.72
2018-08-21T08:57:07.997Z,101036.06
2018-08-21T08:59:36.088Z,101036.59
2018-08-21T09:02:04.222Z,101032.45
2018-08-21T09:04:32.282Z,101038.22
2018-08-21T09:07:00.435Z,101034.64
2018-08-21T09:09:28.513Z,101042.61
2018-08-21T09:11:56.600Z,101027.77
2018-08-21T09:14:30.015Z,101028.88
2018-08-21T09:17:19.959Z,101029.42
2018-08-21T09:20:06.320Z,101023.94
2018-08-21T09:22:35.438Z,101026.10
2018-08-21T09:25:03.569Z,101029.89
2018-08-21T09:27:36.937Z,101023.60
2018-08-21T09:30:05.971Z,101021.66
2018-08-21T09:32:35.038Z,101016.29
2018-08-21T09:35:04.516Z,101018.42
2018-08-21T09:37:32.656Z,101009.61
2018-08-21T09:40:01.546Z,101010.15
2018-08-21T09:42:29.678Z,101002.48
2018-08-21T09:44:57.989Z,101004.06
2018-08-21T09:47:26.719Z,101002.09
2018-08-21T09:50:00.133Z,101009.48
2018-08-21T09:52:29.025Z,101007.80
2018-08-21T09:55:04.279Z,101002.84
2018-08-21T09:57:33.649Z,101002.03
2018-08-21T10:00:03.849Z,100995.09
2018-08-21T10:02:37.331Z,100993.42
2018-08-21T10:05:10.795Z,101001.78
2018-08-21T10:07:38.887Z,100988.29
2018-08-21T10:10:07.899Z,100988.97
2018-08-21T10:12:36.384Z,100990.55
2018-08-21T10:15:06.607Z,100994.91
2018-08-21T10:17:34.724Z,100985.30
2018-08-21T10:20:08.095Z,100981.09
2018-08-21T10:22:36.196Z,100977.66
2018-08-21T10:25:04.702Z,100977.27
2018-08-21T10:27:32.811Z,100974.77
2018-08-21T10:30:00.903Z,100964.25
2018-08-21T10:32:28.970Z,100968.80
2018-08-21T10:34:57.093Z,100960.47
2018-08-21T10:37:30.464Z,100961.52
2018-08-21T10:39:58.553Z,100959.33
2018-08-21T10:42:26.616Z,100950.55
2018-08-21T10:44:54.707Z,100950.88
2018-08-21T10:47:22.772Z,100952.39
2018-08-21T10:49:50.924Z,100947.85
2018-08-21T10:52:19.015Z,100947.50
2018-08-21T10:54:47.079Z,100948.55
2018-08-21T10:57:15.205Z,100942.17
2018-08-21T10:59:43.386Z,100937.98
2018-08-21T11:02:29.787Z,100937.14
2018-08-21T11:05:00.087Z,100935.63
2018-08-21T11:08:06.630Z,100935.92
2018-08-21T11:10:41.012Z,100934.33
2018-08-21T11:13:09.097Z,100930.98
2018-08-21T11:15:37.171Z,100930.44
2018-08-21T11:18:05.307Z,100925.31
2018-08-21T11:20:35.566Z,100922.90
2018-08-21T11:23:04.557Z,100912.69
2018-08-21T11:25:33.008Z,100917.70
2018-08-21T11:28:01.351Z,100912.14
2018-08-21T11:30:29.539Z,100912.26
2018-08-21T11:32:57.600Z,100909.07
2018-08-21T11:35:25.748Z,100916.62
2018-08-21T11:37:53.861Z,100912.36
2018-08-21T11:40:21.911Z,100918.75
2018-08-21T11:42:51.051Z,100916.98
2018-08-21T11:45:20.426Z,100920.63
2018-08-21T11:47:48.940Z,100919.84
2018-08-21T11:50:17.042Z,100915.76
2018-08-21T11:52:45.147Z,100916.74
2018-08-21T11:55:13.278Z,100906.58
2018-08-21T11:57:41.395Z,100908.58
2018-08-21T12:00:11.335Z,100908.23
2018-08-21T12:02:39.544Z,100908.43
2018-08-21T12:05:07.669Z,100907.50
2018-08-21T12:07:35.844Z,100903.16
2018-08-21T12:10:04.288Z,100900.10
2018-08-21T12:12:32.852Z,100897.39
2018-08-21T12:15:00.943Z,100893.59
2018-08-21T12:17:29.163Z,100884.73
2018-08-21T12:19:57.261Z,100883.36
2018-08-21T12:22:25.460Z,100882.13
2018-08-21T12:24:53.617Z,100882.09
2018-08-21T12:27:21.781Z,100875.44
2018-08-21T12:29:49.947Z,100884.89
2018-08-21T12:32:18.228Z,100873.55
2018-08-21T12:34:46.303Z,100878.09
2018-08-21T12:37:14.380Z,100871.25
2018-08-21T12:39:42.808Z,100873.64
2018-08-21T12:42:10.897Z,100874.01
2018-08-21T12:44:38.966Z,100870.19
2018-08-21T12:47:07.062Z,100863.95
2018-08-21T12:49:35.171Z,100865.56
2018-08-21T12:52:03.263Z,100860.36
2018-08-21T12:54:31.419Z,100860.67
2018-08-21T12:56:59.680Z,100856.76
2018-08-21T12:59:27.665Z,100854.66
2018-08-21T13:01:55.796Z,100849.00
2018-08-21T13:04:24.027Z,100846.94
2018-08-21T13:06:52.123Z,100851.20
2018-08-21T13:09:20.211Z,100842.39
2018-08-21T13:11:48.296Z,100838.77
2018-08-21T13:14:16.384Z,100845.80
2018-08-21T13:16:44.471Z,100834.53
2018-08-21T13:19:12.615Z,100832.59
2018-08-21T13:21:40.720Z,100829.93
2018-08-21T13:24:08.793Z,100827.79
2018-08-21T13:26:36.919Z,100826.54
2018-08-21T13:29:11.609Z,100821.15
2018-08-21T13:31:39.691Z,100821.77
2018-08-21T13:34:07.842Z,100825.50
2018-08-21T13:36:35.998Z,100816.57
2018-08-21T13:39:06.231Z,100822.34
2018-08-21T13:41:34.333Z,100818.77
2018-08-21T13:44:02.508Z,100819.52
2018-08-21T13:46:30.643Z,100820.37
2018-08-21T13:48:58.716Z,100812.98
2018-08-21T13:51:26.832Z,100812.86
2018-08-21T13:53:54.913Z,100815.87
2018-08-21T13:56:23.008Z,100813.52
2018-08-21T13:58:51.144Z,100807.14
2018-08-21T14:01:19.252Z,100802.06
2018-08-21T14:03:47.337Z,100804.38
2018-08-21T14:06:15.464Z,100799.94
2018-08-21T14:08:43.554Z,100804.34
2018-08-21T14:11:11.619Z,100798.77
2018-08-21T14:13:39.709Z,100799.51
2018-08-21T14:16:07.787Z,100799.32
2018-08-21T14:18:35.878Z,100794.52
2018-08-21T14:21:04.294Z,100796.19
2018-08-21T14:23:32.371Z,100787.20
2018-08-21T14:26:00.492Z,100785.17
2018-08-21T14:28:28.587Z,100782.06
2018-08-21T14:30:56.676Z,100782.33
2018-08-21T14:33:24.955Z,100783.70
2018-08-21T14:35:53.096Z,100783.46
2018-08-21T14:38:21.254Z,100786.53
2018-08-21T14:40:49.430Z,100781.33
2018-08-21T14:43:17.523Z,100780.19
2018-08-21T14:45:45.671Z,100779.33
2018-08-21T14:48:13.780Z,100770.05
2018-08-21T14:50:41.948Z,100773.16
2018-08-21T14:53:10.080Z,100776.55
2018-08-21T14:55:38.205Z,100768.84
2018-08-21T14:58:06.296Z,100767.91
2018-08-21T15:00:34.407Z,100758.84
2018-08-21T15:03:02.491Z,100762.68
2018-08-21T15:05:30.604Z,100756.55
2018-08-21T15:07:58.756Z,100758.04
2018-08-21T15:10:26.861Z,100752.02
2018-08-21T15:12:55.032Z,100751.40
2018-08-21T15:15:23.213Z,100742.67
2018-08-21T15:17:51.307Z,100740.86
2018-08-21T15:20:19.464Z,100735.45
2018-08-21T15:22:47.665Z,100734.31
2018-08-21T15:25:15.775Z,100733.02
2018-08-21T15:27:44.255Z,100737.36
2018-08-21T15:30:12.259Z,100732.23
2018-08-21T15:32:40.328Z,100733.31
2018-08-21T15:35:08.396Z,100726.23
2018-08-21T15:37:36.475Z,100727.70
2018-08-21T15:40:05.165Z,100726.05
2018-08-21T15:42:33.208Z,100719.59
2018-08-21T15:45:01.286Z,100723.92
2018-08-21T15:47:29.404Z,100723.14
2018-08-21T15:49:57.579Z,100722.94
2018-08-21T15:52:25.759Z,100716.20
2018-08-21T15:54:53.920Z,100720.02
2018-08-21T15:57:22.016Z,100720.05
2018-08-21T15:59:50.100Z,100714.86
2018-08-21T16:02:18.208Z,100712.55
2018-08-21T16:04:46.342Z,100710.52
2018-08-21T16:07:14.447Z,100715.77
2018-08-21T16:09:42.563Z,100713.60
2018-08-21T16:12:10.821Z,100707.66
2018-08-21T16:14:38.899Z,100709.85
2018-08-21T16:17:06.983Z,100706.04
2018-08-21T16:19:35.056Z,100702.25
2018-08-21T16:22:03.166Z,100700.00
2018-08-21T16:24:31.222Z,100698.66
2018-08-21T16:26:59.473Z,100697.28
2018-08-21T16:29:27.553Z,100692.81
2018-08-21T16:31:55.646Z,100695.77
2018-08-21T16:34:23.719Z,100694.20
2018-08-21T16:36:51.850Z,100692.49
2018-08-21T16:39:20.017Z,100696.29
2018-08-21T16:41:48.080Z,100691.59
2018-08-21T16:44:16.160Z,100687.16
2018-08-21T16:46:44.255Z,100694.02
2018-08-21T16:49:12.364Z,100690.77
2018-08-21T16:51:40.463Z,100690.27
2018-08-21T16:54:08.551Z,100690.97
2018-08-21T16:56:36.635Z,100691.05
2018-08-21T16:59:04.752Z,100687.86
2018-08-21T17:01:32.788Z,100691.13
2018-08-21T17:04:00.880Z,100692.45
2018-08-21T17:06:28.966Z,100685.78
2018-08-21T17:08:57.054Z,100688.81
2018-08-21T17:11:25.127Z,100684.50
2018-08-21T17:13:53.214Z,100691.66
2018-08-21T17:16:21.336Z,100683.39
2018-08-21T17:18:49.439Z,100685.48
2018-08-21T17:21:17.511Z,100695.83
2018-08-21T17:23:45.618Z,100686.45
2018-08-21T17:26:13.696Z,100694.06
2018-08-21T17:28:41.750Z,100691.49
2018-08-21T17:31:09.830Z,100692.56
2018-08-21T17:33:37.970Z,100689.59
2018-08-21T17:36:06.160Z,100696.80
2018-08-21T17:38:34.218Z,100690.45
2018-08-21T17:41:02.285Z,100701.98
2018-08-21T17:43:30.554Z,100696.07
2018-08-21T17:45:59.433Z,100695.20
2018-08-21T17:48:27.851Z,100700.11
2018-08-21T17:50:57.138Z,100697.31
2018-08-21T17:53:25.450Z,100706.49
2018-08-21T17:55:53.656Z,100700.02
2018-08-21T17:58:23.045Z,100701.39
2018-08-21T18:00:51.996Z,100704.87
2018-08-21T18:03:20.238Z,100710.30
2018-08-21T18:05:57.993Z,100711.41
2018-08-21T18:08:27.342Z,100710.98
2018-08-21T18:10:57.186Z,100710.08
2018-08-21T18:13:26.020Z,100711.97
2018-08-21T18:15:55.378Z,100707.56
2018-08-21T18:18:24.755Z,100706.52
2018-08-21T18:20:55.254Z,100706.62
2018-08-21T18:23:31.858Z,100708.20
2018-08-21T18:26:00.090Z,100707.58
2018-08-21T18:28:28.812Z,100707.53
2018-08-21T18:31:00.751Z,100714.45
2018-08-21T18:33:29.064Z,100714.59
2018-08-21T18:35:57.447Z,100718.76
2018-08-21T18:38:26.558Z,100727.56
2018-08-21T18:40:58.320Z,100719.41
2018-08-21T18:46:21.343Z,100727.78
2018-08-21T18:48:57.058Z,100724.55
2018-08-21T18:51:37.822Z,100731.80
2018-08-21T18:57:03.072Z,100738.39
2018-08-21T18:59:35.120Z,100740.62
2018-08-21T19:02:05.431Z,100742.48
2018-08-21T19:04:45.382Z,100747.13
2018-08-21T19:07:26.345Z,100746.22
2018-08-21T19:09:56.841Z,100750.76
2018-08-21T19:12:25.721Z,100752.05
2018-08-21T19:14:58.697Z,100751.86
2018-08-21T19:17:28.902Z,100752.73
2018-08-21T19:19:57.872Z,100761.36
2018-08-21T19:22:26.418Z,100757.02
2018-08-21T19:24:54.609Z,100763.64
2018-08-21T19:27:23.296Z,100759.16
2018-08-21T19:29:51.449Z,100763.52
2018-08-21T19:32:20.431Z,100765.22
2018-08-21T19:34:49.732Z,100770.53
2018-08-21T19:37:18.252Z,100775.02
2018-08-21T19:39:58.143Z,100774.52
2018-08-21T19:42:30.031Z,100780.63
2018-08-21T19:45:03.713Z,100777.89
2018-08-21T19:47:37.623Z,100774.88
2018-08-21T19:50:11.710Z,100784.75
2018-08-21T19:52:41.550Z,100781.52
2018-08-21T19:55:24.337Z,100781.19
2018-08-21T19:57:59.219Z,100785.41
2018-08-21T20:00:32.948Z,100778.88
2018-08-21T20:03:04.951Z,100781.69
2018-08-21T20:05:34.692Z,100784.23
2018-08-21T20:08:06.574Z,100778.23
2018-08-21T20:10:34.911Z,100784.03
2018-08-21T20:15:41.502Z,100787.38
2018-08-21T20:18:10.137Z,100792.59
2018-08-21T20:20:38.388Z,100790.47
2018-08-21T20:23:08.376Z,100792.67
2018-08-21T20:25:36.747Z,100786.70
2018-08-21T20:28:05.207Z,100791.06
2018-08-21T20:30:40.819Z,100788.62
2018-08-21T20:33:10.898Z,100793.88
2018-08-21T20:38:19.369Z,100803.30
2018-08-21T20:40:54.135Z,100800.03
2018-08-21T20:43:22.976Z,100801.41
2018-08-21T20:45:52.582Z,100807.18
2018-08-21T20:48:23.980Z,100813.26
2018-08-21T20:50:58.024Z,100815.42
2018-08-21T20:53:27.886Z,100812.20
2018-08-21T20:55:56.180Z,100813.02
2018-08-21T20:58:24.452Z,100816.91
2018-08-21T21:00:53.093Z,100815.78
2018-08-21T21:03:24.112Z,100810.89
2018-08-21T21:05:52.203Z,100820.43
2018-08-21T21:08:20.735Z,100817.98
2018-08-21T21:10:49.307Z,100820.22
2018-08-21T21:13:28.708Z,100826.30
2018-08-21T21:16:08.963Z,100832.58
2018-08-21T21:18:48.598Z,100825.77
2018-08-21T21:21:28.056Z,100832.33
2018-08-21T21:23:55.231Z,100829.89
2018-08-21T21:26:28.771Z,100836.19
2018-08-21T21:29:00.733Z,100836.73
2018-08-21T21:31:29.021Z,100831.00
2018-08-21T21:33:57.259Z,100830.75
2018-08-21T21:36:30.629Z,100837.05
2018-08-21T21:38:58.943Z,100840.33
2018-08-21T21:41:27.182Z,100841.16
2018-08-21T21:43:55.275Z,100838.96
2018-08-21T21:46:23.428Z,100836.52
2018-08-21T21:48:52.546Z,100837.63
2018-08-21T21:51:21.517Z,100833.52
2018-08-21T21:53:51.124Z,100832.44
2018-08-21T21:56:20.704Z,100829.73
2018-08-21T21:58:50.828Z,100835.46
2018-08-21T22:01:23.279Z,100837.08
2018-08-21T22:03:55.585Z,100842.30
2018-08-21T22:06:23.806Z,100848.58
2018-08-21T22:08:51.935Z,100844.23
2018-08-21T22:11:20.038Z,100850.23
2018-08-21T22:13:48.103Z,100840.16
2018-08-21T22:16:16.189Z,100840.41
2018-08-21T22:18:44.392Z,100837.95
2018-08-21T22:21:12.468Z,100833.84
2018-08-21T22:23:40.546Z,100836.02
2018-08-21T22:26:08.603Z,100835.18
2018-08-21T22:28:36.698Z,100836.02
2018-08-21T22:31:04.773Z,100839.59
2018-08-21T22:33:32.862Z,100834.11
2018-08-21T22:36:00.922Z,100836.87
2018-08-21T22:38:28.989Z,100836.31
2018-08-21T22:40:57.075Z,100835.78
2018-08-21T22:43:25.155Z,100834.94
2018-08-21T22:45:53.247Z,100836.33
2018-08-21T22:48:21.322Z,100837.97
2018-08-21T22:50:49.375Z,100833.86
2018-08-21T22:53:17.467Z,100836.31
2018-08-21T22:55:45.552Z,100844.80
2018-08-21T22:58:13.610Z,100836.58
2018-08-21T23:00:41.706Z,100837.14
2018-08-21T23:03:09.762Z,100832.75
2018-08-21T23:05:37.833Z,100832.97
2018-08-21T23:08:05.894Z,100836.75
2018-08-21T23:10:33.968Z,100838.94
2018-08-21T23:13:02.039Z,100829.97
2018-08-21T23:15:30.119Z,100826.39
2018-08-21T23:17:58.180Z,100832.39
2018-08-21T23:20:26.246Z,100826.41
2018-08-21T23:22:54.364Z,100835.41
2018-08-21T23:25:22.442Z,100832.91
2018-08-21T23:27:50.508Z,100830.74
2018-08-21T23:30:18.604Z,100830.41
2018-08-21T23:32:46.820Z,100833.37
2018-08-21T23:35:14.923Z,100835.79
2018-08-21T23:37:43.001Z,100830.98
2018-08-21T23:40:11.066Z,100827.66
2018-08-21T23:42:39.139Z,100829.47
2018-08-21T23:45:07.210Z,100820.58
2018-08-21T23:47:35.320Z,100823.05
2018-08-21T23:50:03.400Z,100820.02
2018-08-21T23:52:31.471Z,100822.70
2018-08-21T23:54:59.577Z,100817.70
2018-08-21T23:57:27.640Z,100817.13
2018-08-21T23:59:55.715Z,100809.50
